createdAt,value
2018-08-13T00:01:13.658Z,4.90
2018-08-13T00:03:42.790Z,5.43
2018-08-13T00:08:49.677Z,6.27
2018-08-13T00:11:18.411Z,5.30
2018-08-13T00:13:47.306Z,6.10
2018-08-13T00:16:15.895Z,6.00
2018-08-13T00:18:44.572Z,4.80
2018-08-13T00:21:13.334Z,6.63
2018-08-13T00:23:42.104Z,5.33
2018-08-13T00:26:10.931Z,5.00
2018-08-13T00:28:39.628Z,5.77
2018-08-13T00:31:08.320Z,5.70
2018-08-13T00:33:37.019Z,5.33
2018-08-13T00:36:05.831Z,5.97
2018-08-13T00:38:34.477Z,6.60
2018-08-13T00:41:03.133Z,5.70
2018-08-13T00:43:31.916Z,5.97
2018-08-13T00:46:00.832Z,5.70
2018-08-13T00:48:29.732Z,5.23
2018-08-13T00:50:58.426Z,5.33
2018-08-13T00:53:27.214Z,5.67
2018-08-13T00:55:55.926Z,5.90
2018-08-13T00:58:24.688Z,5.50
2018-08-13T01:00:53.414Z,5.13
2018-08-13T01:03:21.957Z,6.17
2018-08-13T01:05:51.019Z,5.37
2018-08-13T01:08:19.836Z,6.23
2018-08-13T01:10:48.503Z,5.80
2018-08-13T01:13:17.216Z,5.87
2018-08-13T01:15:45.912Z,5.73
2018-08-13T01:18:15.054Z,5.80
2018-08-13T01:20:43.814Z,5.50
2018-08-13T01:23:12.511Z,5.57
2018-08-13T01:25:41.188Z,5.17
2018-08-13T01:28:10.141Z,5.47
2018-08-13T01:30:38.964Z,5.47
2018-08-13T01:33:07.672Z,5.67
2018-08-13T01:35:36.276Z,5.80
2018-08-13T01:38:05.279Z,5.47
2018-08-13T01:40:34.069Z,5.23
2018-08-13T01:43:02.825Z,5.53
2018-08-13T01:45:38.121Z,4.87
2018-08-13T01:48:06.925Z,5.93
2018-08-13T01:50:35.543Z,5.00
2018-08-13T01:53:04.576Z,5.03
2018-08-13T01:55:33.265Z,5.50
2018-08-13T01:58:02.054Z,5.07
2018-08-13T02:00:30.877Z,5.50
2018-08-13T02:02:59.768Z,5.10
2018-08-13T02:05:28.557Z,5.10
2018-08-13T02:07:57.300Z,5.40
2018-08-13T02:10:26.001Z,4.87
2018-08-13T02:12:54.668Z,5.23
2018-08-13T02:15:23.398Z,5.37
2018-08-13T02:17:52.180Z,5.20
2018-08-13T02:20:20.902Z,5.77
2018-08-13T02:22:49.669Z,4.73
2018-08-13T02:25:18.306Z,4.87
2018-08-13T02:27:47.167Z,5.30
2018-08-13T02:30:15.792Z,4.70
2018-08-13T02:32:44.392Z,4.97
2018-08-13T02:35:13.106Z,4.63
2018-08-13T02:37:42.152Z,5.20
2018-08-13T02:40:11.175Z,5.07
2018-08-13T02:42:39.962Z,5.33
2018-08-13T02:45:10.287Z,5.53
2018-08-13T02:47:38.956Z,5.17
2018-08-13T02:50:10.520Z,5.53
2018-08-13T02:52:39.651Z,5.30
2018-08-13T02:55:09.566Z,5.73
2018-08-13T02:57:38.441Z,5.40
2018-08-13T03:00:09.772Z,5.30
2018-08-13T03:02:38.992Z,5.73
2018-08-13T03:05:10.357Z,5.77
2018-08-13T03:07:39.892Z,5.47
2018-08-13T03:10:11.104Z,5.80
2018-08-13T03:12:39.760Z,5.07
2018-08-13T03:15:12.412Z,5.47
2018-08-13T03:17:41.317Z,4.80
2018-08-13T03:20:10.681Z,6.03
2018-08-13T03:22:39.323Z,5.90
2018-08-13T03:25:09.604Z,4.90
2018-08-13T03:27:38.394Z,5.00
2018-08-13T03:30:10.299Z,5.37
2018-08-13T03:32:53.233Z,5.43
2018-08-13T03:35:22.115Z,5.17
2018-08-13T03:37:51.136Z,5.63
2018-08-13T03:40:19.786Z,4.77
2018-08-13T03:42:48.532Z,5.80
2018-08-13T03:45:17.696Z,5.47
2018-08-13T03:47:46.364Z,5.00
2018-08-13T03:50:15.260Z,5.47
2018-08-13T03:52:44.612Z,5.53
2018-08-13T03:55:13.305Z,5.10
2018-08-13T03:57:42.556Z,5.10
2018-08-13T04:03:16.339Z,6.20
2018-08-13T04:05:45.751Z,5.30
2018-08-13T04:08:14.948Z,5.07
2018-08-13T04:10:44.341Z,5.27
2018-08-13T04:13:13.445Z,5.43
2018-08-13T04:15:42.495Z,5.30
2018-08-13T04:18:11.724Z,5.73
2018-08-13T04:20:41.128Z,5.67
2018-08-13T04:23:10.418Z,5.10
2018-08-13T04:25:39.707Z,5.10
2018-08-13T04:28:08.929Z,5.60
2018-08-13T04:30:38.012Z,5.43
2018-08-13T04:33:07.316Z,5.67
2018-08-13T04:35:36.657Z,5.70
2018-08-13T04:38:05.917Z,5.90
2018-08-13T04:40:35.525Z,5.60
2018-08-13T04:43:04.986Z,5.87
2018-08-13T04:45:34.759Z,5.57
2018-08-13T04:48:05.204Z,5.93
2018-08-13T04:50:35.884Z,4.67
2018-08-13T04:53:05.303Z,6.07
2018-08-13T04:55:34.511Z,5.73
2018-08-13T04:58:03.653Z,5.70
2018-08-13T05:00:33.014Z,6.10
2018-08-13T05:03:02.196Z,6.43
2018-08-13T05:05:31.413Z,5.53
2018-08-13T05:08:00.485Z,5.20
2018-08-13T05:10:29.994Z,5.37
2018-08-13T05:12:59.302Z,5.40
2018-08-13T05:15:28.498Z,5.20
2018-08-13T05:17:57.644Z,5.20
2018-08-13T05:20:26.919Z,5.37
2018-08-13T05:22:56.864Z,5.20
2018-08-13T05:25:26.439Z,5.03
2018-08-13T05:27:55.676Z,4.07
2018-08-13T05:30:25.070Z,4.60
2018-08-13T05:32:54.188Z,4.57
2018-08-13T05:35:23.739Z,4.40
2018-08-13T05:37:52.709Z,4.63
2018-08-13T05:40:22.371Z,4.60
2018-08-13T05:42:51.748Z,4.10
2018-08-13T05:45:20.864Z,3.87
2018-08-13T05:47:50.009Z,4.00
2018-08-13T05:50:19.641Z,3.73
2018-08-13T05:52:48.907Z,3.90
2018-08-13T05:55:18.168Z,3.53
2018-08-13T05:57:47.396Z,4.13
2018-08-13T06:00:16.639Z,3.50
2018-08-13T06:02:45.789Z,3.70
2018-08-13T06:05:15.009Z,3.57
2018-08-13T06:07:44.146Z,3.53
2018-08-13T06:10:14.039Z,4.03
2018-08-13T06:12:43.324Z,3.50
2018-08-13T06:15:13.603Z,3.40
2018-08-13T06:17:42.828Z,3.37
2018-08-13T06:20:13.068Z,3.87
2018-08-13T06:22:43.715Z,3.17
2018-08-13T06:25:13.732Z,3.40
2018-08-13T06:27:42.971Z,3.93
2018-08-13T06:30:14.271Z,3.53
2018-08-13T06:32:43.603Z,3.50
2018-08-13T06:35:13.561Z,3.37
2018-08-13T06:37:43.965Z,3.30
2018-08-13T06:40:13.477Z,3.30
2018-08-13T06:42:42.986Z,3.00
2018-08-13T06:45:12.323Z,2.80
2018-08-13T06:47:41.683Z,3.23
2018-08-13T06:50:12.817Z,2.80
2018-08-13T06:52:42.308Z,3.00
2018-08-13T06:55:11.596Z,2.90
2018-08-13T06:57:41.251Z,3.70
2018-08-13T07:00:12.707Z,3.10
2018-08-13T07:02:41.981Z,3.50
2018-08-13T07:05:11.707Z,3.60
2018-08-13T07:07:47.492Z,2.73
2018-08-13T07:10:16.850Z,4.00
2018-08-13T07:12:47.004Z,3.23
2018-08-13T07:15:16.817Z,3.20
2018-08-13T07:17:45.887Z,3.10
2018-08-13T07:20:16.602Z,2.80
2018-08-13T07:22:45.995Z,3.13
2018-08-13T07:25:15.388Z,3.40
2018-08-13T07:27:44.739Z,2.70
2018-08-13T07:30:15.029Z,3.10
2018-08-13T07:32:44.726Z,2.83
2018-08-13T07:35:13.893Z,3.70
2018-08-13T07:37:43.264Z,2.40
2018-08-13T07:40:14.745Z,3.33
2018-08-13T07:42:44.141Z,2.80
2018-08-13T07:45:13.455Z,2.70
2018-08-13T07:47:43.040Z,3.07
2018-08-13T07:50:13.867Z,2.67
2018-08-13T07:52:43.728Z,3.57
2018-08-13T07:55:13.664Z,3.10
2018-08-13T07:57:43.012Z,2.90
2018-08-13T08:00:16.325Z,2.50
2018-08-13T08:02:45.995Z,2.80
2018-08-13T08:05:15.515Z,2.17
2018-08-13T08:07:44.732Z,2.57
2018-08-13T08:10:15.923Z,3.00
2018-08-13T08:12:45.051Z,2.63
2018-08-13T08:15:16.816Z,3.20
2018-08-13T08:17:45.886Z,2.83
2018-08-13T08:20:15.055Z,2.83
2018-08-13T08:22:44.390Z,2.80
2018-08-13T08:25:19.728Z,2.67
2018-08-13T08:27:48.668Z,2.63
2018-08-13T08:30:18.124Z,2.60
2018-08-13T08:32:47.247Z,3.23
2018-08-13T08:35:17.315Z,2.27
2018-08-13T08:37:46.533Z,2.27
2018-08-13T08:40:18.110Z,2.27
2018-08-13T08:42:47.723Z,2.30
2018-08-13T08:45:22.627Z,2.80
2018-08-13T08:47:52.387Z,2.40
2018-08-13T08:50:21.618Z,2.70
2018-08-13T08:52:50.783Z,2.40
2018-08-13T08:55:23.041Z,2.10
2018-08-13T08:57:52.203Z,2.30
2018-08-13T09:00:22.852Z,2.30
2018-08-13T09:02:52.206Z,2.13
2018-08-13T09:05:21.526Z,2.67
2018-08-13T09:07:50.633Z,2.10
2018-08-13T09:10:19.920Z,1.87
2018-08-13T09:12:49.125Z,1.90
2018-08-13T09:15:18.616Z,2.20
2018-08-13T09:17:59.500Z,2.67
2018-08-13T09:20:39.968Z,2.70
2018-08-13T09:23:19.779Z,2.50
2018-08-13T09:25:59.759Z,2.20
2018-08-13T09:28:39.703Z,2.50
2018-08-13T09:32:21.516Z,2.43
2018-08-13T09:35:27.462Z,1.90
2018-08-13T09:37:58.180Z,1.90
2018-08-13T09:40:28.281Z,2.37
2018-08-13T09:42:57.693Z,2.73
2018-08-13T09:45:26.863Z,2.20
2018-08-13T09:47:56.100Z,2.00
2018-08-13T09:50:26.312Z,1.67
2018-08-13T09:52:55.676Z,2.30
2018-08-13T09:55:25.248Z,1.73
2018-08-13T09:57:54.284Z,2.10
2018-08-13T10:00:28.667Z,1.70
2018-08-13T10:02:58.708Z,1.63
2018-08-13T10:05:27.760Z,1.60
2018-08-13T10:07:56.925Z,1.87
2018-08-13T10:10:25.960Z,1.53
2018-08-13T10:12:55.119Z,1.37
2018-08-13T10:15:24.491Z,1.40
2018-08-13T10:17:53.763Z,1.97
2018-08-13T10:20:22.961Z,2.00
2018-08-13T10:22:52.009Z,1.50
2018-08-13T10:25:21.183Z,1.83
2018-08-13T10:27:50.397Z,1.60
2018-08-13T10:30:19.761Z,1.67
2018-08-13T10:32:48.906Z,1.60
2018-08-13T10:35:18.340Z,1.87
2018-08-13T10:37:47.552Z,1.90
2018-08-13T10:40:19.215Z,1.70
2018-08-13T10:42:48.636Z,1.97
2018-08-13T10:45:17.972Z,1.60
2018-08-13T10:47:47.188Z,1.80
2018-08-13T10:50:16.780Z,1.60
2018-08-13T10:52:46.048Z,1.80
2018-08-13T10:55:15.964Z,2.80
2018-08-13T10:57:45.114Z,2.00
2018-08-13T11:00:15.768Z,1.67
2018-08-13T11:02:45.038Z,1.60
2018-08-13T11:05:15.209Z,1.70
2018-08-13T11:07:44.410Z,2.03
2018-08-13T11:10:14.292Z,1.43
2018-08-13T11:12:43.439Z,1.37
2018-08-13T11:15:14.867Z,1.23
2018-08-13T11:17:44.201Z,1.40
2018-08-13T11:20:13.327Z,1.53
2018-08-13T11:22:42.779Z,1.50
2018-08-13T11:25:13.833Z,1.30
2018-08-13T11:27:43.197Z,1.20
2018-08-13T11:30:14.319Z,1.40
2018-08-13T11:32:43.599Z,1.30
2018-08-13T11:35:13.531Z,1.10
2018-08-13T11:37:42.772Z,1.00
2018-08-13T11:40:17.647Z,1.00
2018-08-13T11:42:47.034Z,1.10
2018-08-13T11:45:16.152Z,1.20
2018-08-13T11:47:45.303Z,1.00
2018-08-13T11:50:17.111Z,1.17
2018-08-13T11:52:47.952Z,1.40
2018-08-13T11:55:17.933Z,1.30
2018-08-13T11:57:48.460Z,1.40
2018-08-13T12:00:17.895Z,1.30
2018-08-13T12:02:47.159Z,1.13
2018-08-13T12:05:16.954Z,1.70
2018-08-13T12:07:46.269Z,1.30
2018-08-13T12:10:15.870Z,1.53
2018-08-13T12:12:45.798Z,2.60
2018-08-13T12:15:15.366Z,1.10
2018-08-13T12:17:44.794Z,1.40
2018-08-13T12:20:15.540Z,1.27
2018-08-13T12:22:45.315Z,1.33
2018-08-13T12:25:30.632Z,1.30
2018-08-13T12:27:59.813Z,1.30
2018-08-13T12:30:29.145Z,1.50
2018-08-13T12:32:58.313Z,1.50
2018-08-13T12:35:27.543Z,1.53
2018-08-13T12:37:56.977Z,1.43
2018-08-13T12:40:26.127Z,2.47
2018-08-13T12:42:55.332Z,2.13
2018-08-13T12:45:24.733Z,2.00
2018-08-13T12:47:53.943Z,1.40
2018-08-13T12:50:23.054Z,3.10
2018-08-13T12:52:52.965Z,3.00
2018-08-13T12:55:22.309Z,1.73
2018-08-13T12:57:51.513Z,1.87
2018-08-13T13:00:20.767Z,4.70
2018-08-13T13:02:50.193Z,1.70
2018-08-13T13:05:19.600Z,1.73
2018-08-13T13:07:48.709Z,2.07
2018-08-13T13:10:18.478Z,4.00
2018-08-13T13:12:47.866Z,1.77
2018-08-13T13:15:21.532Z,1.63
2018-08-13T13:17:50.703Z,1.90
2018-08-13T13:20:23.848Z,5.00
2018-08-13T13:22:53.236Z,1.60
2018-08-13T13:25:22.532Z,1.83
2018-08-13T13:27:51.772Z,1.70
2018-08-13T13:30:21.037Z,1.90
2018-08-13T13:32:50.340Z,1.50
2018-08-13T13:35:19.514Z,1.70
2018-08-13T13:37:48.618Z,1.27
2018-08-13T13:40:18.359Z,1.97
2018-08-13T13:42:47.723Z,1.33
2018-08-13T13:45:17.825Z,1.30
2018-08-13T13:47:47.002Z,1.00
2018-08-13T13:50:17.584Z,1.30
2018-08-13T13:52:46.967Z,1.33
2018-08-13T13:55:16.767Z,1.50
2018-08-13T13:57:45.816Z,1.33
2018-08-13T14:00:16.626Z,1.30
2018-08-13T14:02:46.352Z,1.40
2018-08-13T14:05:15.597Z,1.77
2018-08-13T14:07:45.059Z,1.43
2018-08-13T14:10:16.134Z,3.33
2018-08-13T14:12:46.475Z,1.63
2018-08-13T14:15:17.117Z,1.60
2018-08-13T14:17:46.359Z,1.50
2018-08-13T14:20:15.750Z,1.60
2018-08-13T14:22:44.823Z,1.60
2018-08-13T14:25:14.758Z,1.40
2018-08-13T14:27:44.061Z,2.13
2018-08-13T14:30:17.607Z,2.10
2018-08-13T14:32:47.452Z,2.47
2018-08-13T14:35:17.069Z,2.60
2018-08-13T14:37:46.528Z,2.10
2018-08-13T14:40:15.904Z,2.10
2018-08-13T14:42:45.410Z,2.00
2018-08-13T14:45:15.737Z,2.07
2018-08-13T14:47:47.034Z,2.00
2018-08-13T14:50:16.284Z,2.07
2018-08-13T14:52:46.687Z,2.87
2018-08-13T14:55:19.884Z,2.00
2018-08-13T14:57:49.143Z,1.80
2018-08-13T15:00:25.491Z,2.47
2018-08-13T15:02:55.503Z,3.00
2018-08-13T15:05:25.651Z,2.13
2018-08-13T15:07:54.873Z,2.43
2018-08-13T15:10:25.281Z,2.03
2018-08-13T15:12:54.719Z,2.17
2018-08-13T15:15:24.025Z,1.90
2018-08-13T15:17:53.287Z,2.40
2018-08-13T15:20:26.501Z,1.90
2018-08-13T15:22:55.612Z,1.87
2018-08-13T15:25:25.201Z,2.07
2018-08-13T15:27:54.762Z,1.70
2018-08-13T15:30:24.496Z,2.40
2018-08-13T15:32:54.220Z,1.60
2018-08-13T15:35:23.629Z,2.00
2018-08-13T15:37:52.934Z,2.00
2018-08-13T15:40:21.821Z,1.90
2018-08-13T15:42:51.305Z,1.70
2018-08-13T15:45:22.729Z,1.73
2018-08-13T15:47:52.068Z,1.90
2018-08-13T15:50:22.118Z,2.20
2018-08-13T15:52:51.777Z,1.70
2018-08-13T15:55:21.084Z,2.07
2018-08-13T15:57:50.393Z,1.73
2018-08-13T16:00:22.524Z,1.63
2018-08-13T16:02:52.023Z,1.50
2018-08-13T16:05:21.745Z,1.60
2018-08-13T16:07:51.375Z,1.77
2018-08-13T16:10:20.802Z,1.90
2018-08-13T16:12:49.979Z,2.03
2018-08-13T16:15:19.245Z,2.00
2018-08-13T16:17:48.289Z,1.87
2018-08-13T16:20:18.939Z,1.83
2018-08-13T16:22:48.539Z,1.80
2018-08-13T16:25:18.359Z,1.83
2018-08-13T16:27:48.047Z,1.93
2018-08-13T16:30:23.802Z,2.00
2018-08-13T16:32:53.019Z,1.97
2018-08-13T16:35:22.903Z,2.40
2018-08-13T16:37:52.260Z,1.93
2018-08-13T16:40:21.678Z,1.60
2018-08-13T16:42:51.668Z,1.50
2018-08-13T16:45:21.967Z,1.80
2018-08-13T16:47:51.439Z,1.63
2018-08-13T16:50:31.696Z,2.20
2018-08-13T16:53:01.847Z,2.40
2018-08-13T16:55:32.025Z,2.07
2018-08-13T16:58:01.683Z,2.00
2018-08-13T17:00:31.852Z,2.20
2018-08-13T17:03:07.555Z,1.67
2018-08-13T17:05:36.963Z,2.00
2018-08-13T17:08:06.589Z,2.10
2018-08-13T17:10:35.809Z,1.87
2018-08-13T17:13:04.918Z,1.90
2018-08-13T17:15:34.288Z,2.37
2018-08-13T17:18:03.889Z,1.80
2018-08-13T17:20:35.769Z,1.80
2018-08-13T17:23:05.176Z,1.90
2018-08-13T17:25:34.357Z,2.47
2018-08-13T17:28:03.652Z,2.40
2018-08-13T17:30:33.025Z,2.87
2018-08-13T17:33:02.628Z,2.10
2018-08-13T17:35:34.100Z,2.00
2018-08-13T17:38:04.268Z,2.00
2018-08-13T17:40:34.128Z,1.90
2018-08-13T17:43:03.541Z,2.00
2018-08-13T17:45:32.791Z,2.30
2018-08-13T17:48:02.253Z,2.17
2018-08-13T17:50:31.423Z,2.37
2018-08-13T17:53:00.477Z,2.20
2018-08-13T17:55:29.726Z,2.50
2018-08-13T17:58:00.862Z,2.67
2018-08-13T18:00:30.651Z,2.17
2018-08-13T18:03:00.204Z,2.57
2018-08-13T18:05:32.772Z,2.20
2018-08-13T18:08:03.877Z,2.27
2018-08-13T18:10:35.201Z,2.00
2018-08-13T18:13:06.473Z,2.00
2018-08-13T18:15:35.714Z,2.20
2018-08-13T18:18:06.179Z,2.30
2018-08-13T18:20:35.830Z,1.90
2018-08-13T18:23:05.106Z,2.40
2018-08-13T18:25:34.664Z,2.30
2018-08-13T18:28:03.857Z,2.53
2018-08-13T18:30:33.222Z,2.53
2018-08-13T18:33:02.524Z,2.00
2018-08-13T18:35:31.814Z,2.40
2018-08-13T18:38:01.053Z,2.57
2018-08-13T18:40:34.471Z,2.20
2018-08-13T18:43:04.111Z,2.60
2018-08-13T18:45:33.343Z,2.40
2018-08-13T18:48:03.033Z,2.30
2018-08-13T18:50:32.324Z,2.33
2018-08-13T18:53:03.904Z,2.43
2018-08-13T18:55:33.964Z,2.40
2018-08-13T18:58:03.689Z,2.57
2018-08-13T19:00:32.961Z,2.93
2018-08-13T19:03:03.282Z,3.20
2018-08-13T19:05:40.672Z,3.00
2018-08-13T19:08:10.014Z,2.70
2018-08-13T19:10:39.632Z,2.60
2018-08-13T19:13:08.731Z,3.70
2018-08-13T19:15:37.746Z,3.97
2018-08-13T19:18:06.943Z,2.80
2018-08-13T19:20:36.605Z,2.80
2018-08-13T19:23:05.816Z,2.70
2018-08-13T19:25:39.312Z,2.63
2018-08-13T19:28:08.410Z,3.13
2018-08-13T19:30:42.016Z,2.20
2018-08-13T19:33:12.546Z,2.50
2018-08-13T19:35:41.892Z,2.73
2018-08-13T19:38:14.429Z,2.83
2018-08-13T19:40:44.447Z,2.40
2018-08-13T19:43:13.778Z,2.73
2018-08-13T19:45:43.190Z,2.77
2018-08-13T19:48:12.539Z,2.60
2018-08-13T19:50:41.777Z,2.70
2018-08-13T19:53:11.046Z,2.67
2018-08-13T19:55:40.377Z,2.83
2018-08-13T19:58:09.660Z,3.70
2018-08-13T20:00:38.915Z,2.87
2018-08-13T20:03:13.261Z,2.57
2018-08-13T20:05:51.194Z,3.10
2018-08-13T20:08:20.420Z,3.00
2018-08-13T20:10:49.459Z,2.70
2018-08-13T20:13:18.871Z,3.20
2018-08-13T20:15:48.076Z,3.00
2018-08-13T20:18:18.081Z,3.40
2018-08-13T20:20:47.425Z,2.70
2018-08-13T20:23:16.867Z,3.33
2018-08-13T20:25:46.130Z,3.13
2018-08-13T20:28:15.381Z,3.40
2018-08-13T20:30:44.571Z,3.63
2018-08-13T20:33:13.896Z,3.23
2018-08-13T20:35:43.139Z,2.90
2018-08-13T20:38:12.600Z,3.30
2018-08-13T20:40:41.596Z,3.73
2018-08-13T20:43:10.800Z,3.37
2018-08-13T20:45:40.180Z,3.70
2018-08-13T20:48:09.904Z,3.20
2018-08-13T20:50:40.974Z,3.53
2018-08-13T20:53:10.967Z,3.77
2018-08-13T20:55:40.883Z,3.50
2018-08-13T20:58:10.572Z,4.60
2018-08-13T21:00:39.881Z,3.87
2018-08-13T21:03:09.084Z,3.53
2018-08-13T21:05:38.509Z,3.80
2018-08-13T21:08:08.036Z,3.13
2018-08-13T21:10:37.314Z,3.37
2018-08-13T21:13:06.520Z,3.80
2018-08-13T21:15:35.845Z,3.73
2018-08-13T21:18:05.045Z,3.57
2018-08-13T21:20:34.458Z,3.90
2018-08-13T21:23:03.541Z,4.07
2018-08-13T21:25:32.827Z,3.60
2018-08-13T21:28:02.149Z,3.67
2018-08-13T21:30:31.498Z,3.67
2018-08-13T21:33:00.793Z,3.70
2018-08-13T21:35:30.082Z,4.03
2018-08-13T21:37:59.197Z,3.23
2018-08-13T21:40:28.409Z,3.90
2018-08-13T21:42:57.735Z,3.87
2018-08-13T21:45:26.867Z,3.60
2018-08-13T21:47:56.341Z,4.30
2018-08-13T21:50:25.622Z,3.90
2018-08-13T21:52:54.902Z,4.03
2018-08-13T21:55:24.232Z,3.83
2018-08-13T21:57:53.442Z,4.40
2018-08-13T22:00:26.339Z,4.17
2018-08-13T22:02:56.279Z,3.97
2018-08-13T22:05:25.647Z,4.60
2018-08-13T22:07:54.894Z,3.97
2018-08-13T22:10:24.001Z,3.90
2018-08-13T22:12:53.237Z,3.67
2018-08-13T22:15:29.076Z,4.07
2018-08-13T22:17:59.722Z,4.10
2018-08-13T22:20:29.364Z,3.97
2018-08-13T22:22:59.827Z,3.83
2018-08-13T22:25:32.356Z,4.17
2018-08-13T22:28:01.839Z,4.00
2018-08-13T22:30:32.444Z,4.43
2018-08-13T22:33:01.716Z,4.80
2018-08-13T22:35:31.006Z,3.70
2018-08-13T22:38:00.183Z,4.00
2018-08-13T22:40:29.522Z,4.03
2018-08-13T22:42:58.631Z,4.23
2018-08-13T22:45:27.785Z,4.10
2018-08-13T22:47:56.972Z,4.50
2018-08-13T22:50:26.276Z,4.30
2018-08-13T22:52:55.576Z,4.60
2018-08-13T22:55:24.893Z,4.43
2018-08-13T22:57:54.023Z,4.47
2018-08-13T23:00:23.625Z,4.10
2018-08-13T23:02:52.900Z,4.00
2018-08-13T23:05:24.519Z,4.20
2018-08-13T23:07:53.727Z,3.60
2018-08-13T23:10:23.941Z,4.13
2018-08-13T23:12:53.741Z,4.00
2018-08-13T23:15:22.991Z,4.10
2018-08-13T23:17:52.644Z,3.90
2018-08-13T23:20:25.065Z,3.50
2018-08-13T23:23:01.816Z,4.00
2018-08-13T23:25:31.985Z,4.30
2018-08-13T23:28:02.418Z,4.33
2018-08-13T23:30:31.650Z,3.90
2018-08-13T23:33:01.451Z,4.20
2018-08-13T23:35:31.299Z,4.67
2018-08-13T23:38:00.806Z,4.60
2018-08-13T23:40:30.189Z,4.20
2018-08-13T23:42:59.621Z,4.30
2018-08-13T23:45:30.349Z,4.40
2018-08-13T23:47:59.669Z,4.57
2018-08-13T23:50:29.294Z,3.97
2018-08-13T23:52:59.874Z,4.40
2018-08-13T23:55:34.014Z,3.90
2018-08-13T23:58:03.746Z,3.63
